Terminal Aerodrome Forecast
Issued by NWS

Home | Current Version | Previous Version | Graphics & Text | Print | Product List | Glossary On
Versions: 1 2 3 4 5 6 7 8 9 10 11 12 13 14 15 16 17 18 19
000
FTUS43 KBIS 261125
TAFMOT
TAF
KMOT 261125Z 2612/2712 21009KT P6SM SCT120
     FM262100 18009KT P6SM VCTS BKN080CB
     FM270300 15006KT P6SM BKN080
     FM270800 14009KT P6SM VCTS SCT040CB BKN080=

USA.gov is the U.S. government's official web portal to all federal, state and local government web resources and services.